createdAt,value
2019-03-04T00:01:21.765Z,5.00
2019-03-04T00:03:50.281Z,4.90
2019-03-04T00:06:18.986Z,5.00
2019-03-04T00:08:47.564Z,5.00
2019-03-04T00:11:16.130Z,5.00
2019-03-04T00:13:44.715Z,5.00
2019-03-04T00:16:13.346Z,5.00
2019-03-04T00:18:41.929Z,5.00
2019-03-04T00:21:10.498Z,5.00
2019-03-04T00:23:39.142Z,5.00
2019-03-04T00:26:07.798Z,5.00
2019-03-04T00:28:36.442Z,5.00
2019-03-04T00:31:05.261Z,4.90
2019-03-04T00:33:33.901Z,4.90
2019-03-04T00:36:02.470Z,4.90
2019-03-04T00:38:31.038Z,4.90
2019-03-04T00:40:59.610Z,4.90
2019-03-04T00:43:28.178Z,4.90
2019-03-04T00:45:56.754Z,4.90
2019-03-04T00:48:25.322Z,4.90
2019-03-04T00:50:53.914Z,4.90
2019-03-04T00:53:22.494Z,4.90
2019-03-04T00:55:51.075Z,4.80
2019-03-04T00:58:19.706Z,4.80
2019-03-04T01:00:48.281Z,4.80
2019-03-04T01:03:16.858Z,4.80
2019-03-04T01:05:45.422Z,4.80
2019-03-04T01:08:14.076Z,4.80
2019-03-04T01:10:42.782Z,4.70
2019-03-04T01:13:11.526Z,4.70
2019-03-04T01:15:40.162Z,4.70
2019-03-04T01:18:08.798Z,4.70
2019-03-04T01:20:37.385Z,4.70
2019-03-04T01:23:06.022Z,4.60
2019-03-04T01:25:34.598Z,4.60
2019-03-04T01:28:03.169Z,4.70
2019-03-04T01:30:31.750Z,4.60
2019-03-04T01:33:00.390Z,4.60
2019-03-04T01:35:29.006Z,4.60
2019-03-04T01:37:57.574Z,4.60
2019-03-04T01:40:26.170Z,4.60
2019-03-04T01:42:54.822Z,4.60
2019-03-04T01:45:23.571Z,4.60
2019-03-04T01:47:52.170Z,4.60
2019-03-04T01:50:20.834Z,4.60
2019-03-04T01:52:49.482Z,4.60
2019-03-04T01:55:18.594Z,4.60
2019-03-04T01:57:47.466Z,4.60
2019-03-04T02:00:17.870Z,4.60
2019-03-04T02:02:46.689Z,4.60
2019-03-04T02:05:15.599Z,4.60
2019-03-04T02:07:44.234Z,4.50
2019-03-04T02:10:17.789Z,4.50
2019-03-04T02:12:46.998Z,4.50
2019-03-04T02:15:20.006Z,4.50
2019-03-04T02:17:48.714Z,4.60
2019-03-04T02:20:18.452Z,4.50
2019-03-04T02:22:47.663Z,4.50
2019-03-04T02:25:19.013Z,4.50
2019-03-04T02:27:54.977Z,4.50
2019-03-04T02:30:26.487Z,4.50
2019-03-04T02:32:55.187Z,4.50
2019-03-04T02:35:23.759Z,4.50
2019-03-04T02:37:52.407Z,4.50
2019-03-04T02:40:20.974Z,4.50
2019-03-04T02:42:49.593Z,4.50
2019-03-04T02:45:19.290Z,4.50
2019-03-04T02:47:48.314Z,4.50
2019-03-04T02:50:17.226Z,4.50
2019-03-04T02:52:45.862Z,4.40
2019-03-04T02:55:16.294Z,4.40
2019-03-04T02:57:45.089Z,4.40
2019-03-04T03:00:17.949Z,4.40
2019-03-04T03:02:46.695Z,4.40
2019-03-04T03:05:15.511Z,4.40
2019-03-04T03:07:44.168Z,4.40
2019-03-04T03:10:14.341Z,4.40
2019-03-04T03:12:42.979Z,4.40
2019-03-04T03:15:16.430Z,4.40
2019-03-04T03:17:45.013Z,4.40
2019-03-04T03:20:14.421Z,4.40
2019-03-04T03:22:43.087Z,4.40
2019-03-04T03:25:13.747Z,4.40
2019-03-04T03:27:42.420Z,4.40
2019-03-04T03:30:16.004Z,4.40
2019-03-04T03:32:44.592Z,4.30
2019-03-04T03:35:13.334Z,4.30
2019-03-04T03:37:42.040Z,4.30
2019-03-04T03:40:18.499Z,4.40
2019-03-04T03:42:47.348Z,4.30
2019-03-04T03:45:16.365Z,4.30
2019-03-04T03:47:44.998Z,4.30
2019-03-04T03:50:18.496Z,4.30
2019-03-04T03:52:47.341Z,4.30
2019-03-04T03:55:16.822Z,4.30
2019-03-04T03:57:45.519Z,4.30
2019-03-04T04:00:21.368Z,4.30
2019-03-04T04:02:50.183Z,4.30
2019-03-04T04:05:18.993Z,4.30
2019-03-04T04:07:47.711Z,4.30
2019-03-04T04:10:17.817Z,4.30
2019-03-04T04:12:46.534Z,4.20
2019-03-04T04:15:16.540Z,4.20
2019-03-04T04:17:45.118Z,4.20
2019-03-04T04:20:14.127Z,4.20
2019-03-04T04:22:42.820Z,4.20
2019-03-04T04:25:12.330Z,4.20
2019-03-04T04:27:40.919Z,4.10
2019-03-04T04:30:21.398Z,4.10
2019-03-04T04:32:50.040Z,4.10
2019-03-04T04:35:18.619Z,4.10
2019-03-04T04:37:47.186Z,4.10
2019-03-04T04:40:15.766Z,4.10
2019-03-04T04:42:44.337Z,4.10
2019-03-04T04:45:13.058Z,4.10
2019-03-04T04:47:43.065Z,4.10
2019-03-04T04:50:14.722Z,4.00
2019-03-04T04:52:43.438Z,4.00
2019-03-04T04:55:12.074Z,4.00
2019-03-04T04:57:40.656Z,4.00
2019-03-04T05:00:17.113Z,3.90
2019-03-04T05:02:45.750Z,3.90
2019-03-04T05:05:14.658Z,3.90
2019-03-04T05:07:43.473Z,3.90
2019-03-04T05:10:23.662Z,3.90
2019-03-04T05:12:52.310Z,3.80
2019-03-04T05:15:20.946Z,3.80
2019-03-04T05:17:49.666Z,3.80
2019-03-04T05:20:22.795Z,3.80
2019-03-04T05:22:51.546Z,3.70
2019-03-04T05:25:20.251Z,3.70
2019-03-04T05:27:48.822Z,3.70
2019-03-04T05:30:21.751Z,3.70
2019-03-04T05:32:50.345Z,3.60
2019-03-04T05:35:20.033Z,3.60
2019-03-04T05:37:48.780Z,3.60
2019-03-04T05:40:21.374Z,3.60
2019-03-04T05:42:50.190Z,3.60
2019-03-04T05:45:19.503Z,3.50
2019-03-04T05:47:48.150Z,3.50
2019-03-04T05:50:22.035Z,3.40
2019-03-04T05:52:50.719Z,3.50
2019-03-04T05:55:19.423Z,3.50
2019-03-04T05:57:48.070Z,3.40
2019-03-04T06:00:21.746Z,3.40
2019-03-04T06:02:52.530Z,3.40
2019-03-04T06:05:21.234Z,3.40
2019-03-04T06:07:57.279Z,3.30
2019-03-04T06:10:25.988Z,3.30
2019-03-04T06:12:54.734Z,3.30
2019-03-04T06:15:23.529Z,3.30
2019-03-04T06:17:52.184Z,3.30
2019-03-04T06:20:21.406Z,3.30
2019-03-04T06:22:50.115Z,3.30
2019-03-04T06:25:24.015Z,3.30
2019-03-04T06:27:52.654Z,3.20
2019-03-04T06:30:23.296Z,3.30
2019-03-04T06:32:51.931Z,3.20
2019-03-04T06:35:20.566Z,3.20
2019-03-04T06:37:50.014Z,3.20
2019-03-04T06:40:20.231Z,3.20
2019-03-04T06:42:48.977Z,3.20
2019-03-04T06:45:18.594Z,3.20
2019-03-04T06:47:47.278Z,3.20
2019-03-04T06:50:46.898Z,3.20
2019-03-04T06:53:21.242Z,3.20
2019-03-04T06:56:10.928Z,3.20
2019-03-04T06:58:51.815Z,3.30
2019-03-04T07:01:23.550Z,3.30
2019-03-04T07:03:55.218Z,3.30
2019-03-04T07:06:23.958Z,3.30
2019-03-04T07:08:55.602Z,3.30
2019-03-04T07:11:24.174Z,3.30
2019-03-04T07:13:52.747Z,3.40
2019-03-04T07:16:21.328Z,3.30
2019-03-04T07:18:50.003Z,3.40
2019-03-04T07:21:18.658Z,3.40
2019-03-04T07:23:47.218Z,3.30
2019-03-04T07:26:15.792Z,3.30
2019-03-04T07:28:44.382Z,3.30
2019-03-04T07:31:12.946Z,3.30
2019-03-04T07:33:41.598Z,3.30
2019-03-04T07:36:10.326Z,3.40
2019-03-04T07:38:50.206Z,3.40
2019-03-04T07:41:18.782Z,3.40
2019-03-04T07:43:47.374Z,3.40
2019-03-04T07:46:16.047Z,3.40
2019-03-04T07:48:44.682Z,3.30
2019-03-04T07:51:14.899Z,3.30
2019-03-04T07:53:46.732Z,3.40
2019-03-04T07:56:13.830Z,3.30
2019-03-04T07:58:42.466Z,3.30
2019-03-04T08:01:11.290Z,3.30
2019-03-04T08:03:39.934Z,3.30
2019-03-04T08:06:08.579Z,3.30
2019-03-04T08:08:38.186Z,3.40
2019-03-04T08:11:43.401Z,3.40
2019-03-04T08:14:13.806Z,3.40
2019-03-04T08:16:42.399Z,3.50
2019-03-04T08:19:10.966Z,3.50
2019-03-04T08:21:39.674Z,3.70
2019-03-04T08:24:08.267Z,3.70
2019-03-04T08:26:36.982Z,3.70
2019-03-04T08:29:05.794Z,3.60
2019-03-04T08:31:34.493Z,3.60
2019-03-04T08:34:03.095Z,3.60
2019-03-04T08:36:31.818Z,3.60
2019-03-04T08:39:00.343Z,3.50
2019-03-04T08:41:28.922Z,3.50
2019-03-04T08:43:57.487Z,3.50
2019-03-04T08:46:26.150Z,3.50
2019-03-04T08:48:54.730Z,3.50
2019-03-04T08:51:23.314Z,3.40
2019-03-04T08:53:51.892Z,3.40
2019-03-04T08:56:20.527Z,3.50
2019-03-04T08:58:49.103Z,3.60
2019-03-04T09:01:17.806Z,3.70
2019-03-04T09:03:46.379Z,3.70
2019-03-04T09:06:15.220Z,3.60
2019-03-04T09:08:43.810Z,3.70
2019-03-04T09:11:12.466Z,3.90
2019-03-04T09:13:41.598Z,3.90
2019-03-04T09:16:10.258Z,3.90
2019-03-04T09:18:38.829Z,3.80
2019-03-04T09:21:07.470Z,3.80
2019-03-04T09:23:36.030Z,3.60
2019-03-04T09:26:11.763Z,3.50
2019-03-04T09:28:40.758Z,3.40
2019-03-04T09:31:09.486Z,3.30
2019-03-04T09:33:38.034Z,3.20
2019-03-04T09:36:06.624Z,3.20
2019-03-04T09:38:35.267Z,3.10
2019-03-04T09:41:03.966Z,3.10
2019-03-04T09:43:32.544Z,3.10
2019-03-04T09:46:01.178Z,3.10
2019-03-04T09:48:29.766Z,3.10
2019-03-04T09:50:58.409Z,3.10
2019-03-04T09:53:27.053Z,3.20
2019-03-04T09:55:56.928Z,3.20
2019-03-04T09:58:25.522Z,3.10
2019-03-04T10:01:03.102Z,3.10
2019-03-04T10:03:43.826Z,3.10
2019-03-04T10:06:36.897Z,3.10
2019-03-04T10:09:11.506Z,3.10
2019-03-04T10:11:55.162Z,3.20
2019-03-04T10:14:43.918Z,3.10
2019-03-04T10:17:18.337Z,3.10
2019-03-04T10:20:06.373Z,3.10
2019-03-04T10:22:43.878Z,3.10
2019-03-04T10:25:36.798Z,3.10
2019-03-04T10:28:10.938Z,3.20
2019-03-04T10:30:57.249Z,3.20
2019-03-04T10:33:34.594Z,3.20
2019-03-04T10:36:21.178Z,3.30
2019-03-04T10:39:13.524Z,3.30
2019-03-04T10:41:48.416Z,3.40
2019-03-04T10:44:20.062Z,3.30
2019-03-04T10:46:56.776Z,3.30
2019-03-04T10:49:26.682Z,3.40
2019-03-04T10:51:55.509Z,3.40
2019-03-04T10:54:24.366Z,3.40
2019-03-04T10:56:53.146Z,3.50
2019-03-04T10:59:22.043Z,3.60
2019-03-04T11:01:50.766Z,3.60
2019-03-04T11:04:19.486Z,3.60
2019-03-04T11:06:48.443Z,3.60
2019-03-04T11:09:17.228Z,3.60
2019-03-04T11:11:46.030Z,3.60
2019-03-04T11:14:14.670Z,3.80
2019-03-04T11:16:43.322Z,3.80
2019-03-04T11:19:11.906Z,3.90
2019-03-04T11:21:40.553Z,3.90
2019-03-04T11:24:10.129Z,3.90
2019-03-04T11:26:38.842Z,4.00
2019-03-04T11:29:08.614Z,4.00
2019-03-04T11:31:37.443Z,4.00
2019-03-04T11:34:06.283Z,4.00
2019-03-04T11:36:34.914Z,4.10
2019-03-04T11:39:22.869Z,4.20
2019-03-04T11:41:51.476Z,4.20
2019-03-04T11:44:20.125Z,4.20
2019-03-04T11:46:48.691Z,4.20
2019-03-04T11:49:17.270Z,4.20
2019-03-04T11:51:45.847Z,4.20
2019-03-04T11:54:14.483Z,4.30
2019-03-04T11:56:43.054Z,4.50
2019-03-04T11:59:11.782Z,4.50
2019-03-04T12:01:42.138Z,4.60
2019-03-04T12:04:10.778Z,4.70
2019-03-04T12:06:39.426Z,4.70
2019-03-04T12:09:11.374Z,4.70
2019-03-04T12:11:39.954Z,4.60
2019-03-04T12:14:08.591Z,4.70
2019-03-04T12:16:37.238Z,4.70
2019-03-04T12:19:06.550Z,4.70
2019-03-04T12:21:35.574Z,4.80
2019-03-04T12:24:04.439Z,4.70
2019-03-04T12:26:33.086Z,4.80
2019-03-04T12:29:01.670Z,4.90
2019-03-04T12:31:31.946Z,5.00
2019-03-04T12:34:00.595Z,4.90
2019-03-04T12:36:29.163Z,4.90
2019-03-04T12:38:57.737Z,5.00
2019-03-04T12:41:26.306Z,5.00
2019-03-04T12:43:54.945Z,5.00
2019-03-04T12:46:23.594Z,5.10
2019-03-04T12:48:52.168Z,5.20
2019-03-04T12:51:23.400Z,5.50
2019-03-04T12:53:51.094Z,5.60
2019-03-04T12:56:19.685Z,5.70
2019-03-04T12:58:48.266Z,5.70
2019-03-04T13:01:16.990Z,5.70
2019-03-04T13:03:45.570Z,5.60
2019-03-04T13:06:14.174Z,5.80
2019-03-04T13:08:42.762Z,5.90
2019-03-04T13:11:11.422Z,5.90
2019-03-04T13:13:40.015Z,5.90
2019-03-04T13:16:08.590Z,5.90
2019-03-04T13:18:37.298Z,5.90
2019-03-04T13:21:05.898Z,5.90
2019-03-04T13:23:34.486Z,5.90
2019-03-04T13:26:03.071Z,5.90
2019-03-04T13:28:31.758Z,5.80
2019-03-04T13:31:00.409Z,5.90
2019-03-04T13:33:29.053Z,5.80
2019-03-04T13:35:57.883Z,5.90
2019-03-04T13:38:26.634Z,6.00
2019-03-04T13:40:55.286Z,6.00
2019-03-04T13:43:23.938Z,6.00
2019-03-04T13:45:52.670Z,6.00
2019-03-04T13:48:21.250Z,6.00
2019-03-04T13:50:49.998Z,5.90
2019-03-04T13:53:18.714Z,5.90
2019-03-04T13:55:47.297Z,5.90
2019-03-04T13:58:16.022Z,5.80
2019-03-04T14:00:44.665Z,5.80
2019-03-04T14:03:14.378Z,5.70
2019-03-04T14:05:43.098Z,5.70
2019-03-04T14:08:11.815Z,5.60
2019-03-04T14:10:44.562Z,5.70
2019-03-04T14:13:13.383Z,5.80
2019-03-04T14:15:49.450Z,5.70
2019-03-04T14:18:18.101Z,5.70
2019-03-04T14:20:46.746Z,5.70
2019-03-04T14:23:15.313Z,5.70
2019-03-04T14:25:44.034Z,5.70
2019-03-04T14:28:12.682Z,5.70
2019-03-04T14:30:41.327Z,5.70
2019-03-04T14:33:09.972Z,5.70
2019-03-04T14:35:38.726Z,5.60
2019-03-04T14:38:07.294Z,5.60
2019-03-04T14:40:36.022Z,5.60
2019-03-04T14:43:04.834Z,5.60
2019-03-04T14:45:33.562Z,5.70
2019-03-04T14:48:02.150Z,5.70
2019-03-04T14:50:30.942Z,5.60
2019-03-04T14:52:59.588Z,5.70
2019-03-04T14:55:42.339Z,5.70
2019-03-04T14:58:10.914Z,5.70
2019-03-04T15:00:43.158Z,5.70
2019-03-04T15:03:19.814Z,5.70
2019-03-04T15:05:42.351Z,5.70
2019-03-04T15:08:11.016Z,5.70
2019-03-04T15:10:39.586Z,5.70
2019-03-04T15:13:09.875Z,5.70
2019-03-04T15:15:40.068Z,5.70
2019-03-04T15:18:08.774Z,5.60
2019-03-04T15:20:37.598Z,5.60
2019-03-04T15:23:06.236Z,5.60
2019-03-04T15:25:40.375Z,5.60
2019-03-04T15:28:20.718Z,5.70
2019-03-04T15:30:57.953Z,5.60
2019-03-04T15:33:26.658Z,5.60
2019-03-04T15:35:55.374Z,5.50
2019-03-04T15:38:23.968Z,5.50
2019-03-04T15:40:52.754Z,5.50
2019-03-04T15:43:21.336Z,5.50
2019-03-04T15:45:51.639Z,5.50
2019-03-04T15:48:22.655Z,5.40
2019-03-04T15:50:51.421Z,5.40
2019-03-04T15:53:19.998Z,5.40
2019-03-04T15:55:48.710Z,5.30
2019-03-04T15:58:17.394Z,5.30
2019-03-04T16:00:46.030Z,5.40
2019-03-04T16:03:14.739Z,5.30
2019-03-04T16:05:43.482Z,5.30
2019-03-04T16:08:12.128Z,5.30
2019-03-04T16:10:40.877Z,5.20
2019-03-04T16:13:09.838Z,5.20
2019-03-04T16:15:41.526Z,5.10
2019-03-04T16:18:10.235Z,5.10
2019-03-04T16:20:38.959Z,5.10
2019-03-04T16:23:07.767Z,5.10
2019-03-04T16:25:36.590Z,5.10
2019-03-04T16:28:13.994Z,5.10
2019-03-04T16:30:43.640Z,5.10
2019-03-04T16:33:12.353Z,5.10
2019-03-04T16:35:41.150Z,5.00
2019-03-04T16:38:09.871Z,5.00
2019-03-04T16:40:38.670Z,4.90
2019-03-04T16:43:07.458Z,4.80
2019-03-04T16:45:37.075Z,4.80
2019-03-04T16:48:05.695Z,4.90
2019-03-04T16:50:36.806Z,4.80
2019-03-04T16:53:14.366Z,4.80
2019-03-04T16:55:43.014Z,4.70
2019-03-04T16:58:11.580Z,4.70
2019-03-04T17:00:40.897Z,4.70
2019-03-04T17:03:09.532Z,4.70
2019-03-04T17:05:38.186Z,4.70
2019-03-04T17:08:07.024Z,4.70
2019-03-04T17:10:35.702Z,4.60
2019-03-04T17:13:04.442Z,4.70
2019-03-04T17:15:33.149Z,4.60
2019-03-04T17:18:01.796Z,4.70
2019-03-04T17:20:30.429Z,4.60
2019-03-04T17:22:59.006Z,4.70
2019-03-04T17:25:27.651Z,4.60
2019-03-04T17:27:56.374Z,4.60
2019-03-04T17:30:27.054Z,4.60
2019-03-04T17:32:55.783Z,4.60
2019-03-04T17:35:24.798Z,4.60
2019-03-04T17:37:53.379Z,4.60
2019-03-04T17:40:26.795Z,4.60
2019-03-04T17:42:55.451Z,4.50
2019-03-04T17:45:26.139Z,4.50
2019-03-04T17:47:54.850Z,4.50
2019-03-04T17:50:29.179Z,4.40
2019-03-04T17:52:57.814Z,4.40
2019-03-04T17:55:45.799Z,4.40
2019-03-04T17:58:14.806Z,4.40
2019-03-04T18:00:45.114Z,4.40
2019-03-04T18:03:13.780Z,4.50
2019-03-04T18:05:42.342Z,4.40
2019-03-04T18:08:10.992Z,4.30
2019-03-04T18:10:39.569Z,4.30
2019-03-04T18:13:11.054Z,4.30
2019-03-04T18:15:41.364Z,4.30
2019-03-04T18:18:10.078Z,4.30
2019-03-04T18:20:38.724Z,4.30
2019-03-04T18:23:07.446Z,4.30
2019-03-04T18:25:39.470Z,4.20
2019-03-04T18:28:17.003Z,4.20
2019-03-04T18:30:57.436Z,4.30
2019-03-04T18:33:51.890Z,4.20
2019-03-04T18:36:38.495Z,4.20
2019-03-04T18:39:28.358Z,4.20
2019-03-04T18:42:33.438Z,4.20
2019-03-04T18:45:14.153Z,4.20
2019-03-04T18:48:22.030Z,4.30
2019-03-04T18:50:50.969Z,4.30
2019-03-04T18:53:19.550Z,4.30
2019-03-04T18:55:48.119Z,4.30
2019-03-04T18:58:16.698Z,4.30
2019-03-04T19:00:45.507Z,4.20
2019-03-04T19:03:14.230Z,4.30
2019-03-04T19:05:42.879Z,4.30
2019-03-04T19:08:11.555Z,4.30
2019-03-04T19:10:40.195Z,4.30
2019-03-04T19:13:08.838Z,4.20
2019-03-04T19:15:37.414Z,4.20
2019-03-04T19:18:06.220Z,4.20
2019-03-04T19:20:34.798Z,4.20
2019-03-04T19:23:03.366Z,4.10
2019-03-04T19:25:31.938Z,4.20
2019-03-04T19:28:00.505Z,4.10
2019-03-04T19:30:29.094Z,4.10
2019-03-04T19:32:57.714Z,4.10
2019-03-04T19:35:26.361Z,4.10
2019-03-04T19:37:55.113Z,4.00
2019-03-04T19:40:23.749Z,4.10
2019-03-04T19:42:52.467Z,4.00
2019-03-04T19:45:21.098Z,4.00
2019-03-04T19:47:50.098Z,4.00
2019-03-04T19:50:18.746Z,4.00
2019-03-04T19:52:47.418Z,4.00
2019-03-04T19:55:17.422Z,4.00
2019-03-04T19:57:46.467Z,3.90
2019-03-04T20:00:21.910Z,3.90
2019-03-04T20:02:51.830Z,3.90
2019-03-04T20:05:21.521Z,3.90
2019-03-04T20:07:50.094Z,3.90
2019-03-04T20:10:19.415Z,3.90
2019-03-04T20:12:48.354Z,3.80
2019-03-04T20:15:23.171Z,3.90
2019-03-04T20:17:52.087Z,3.80
2019-03-04T20:20:21.014Z,3.80
2019-03-04T20:22:49.726Z,3.80
2019-03-04T20:25:19.042Z,3.80
2019-03-04T20:27:47.791Z,3.80
2019-03-04T20:30:20.528Z,3.80
2019-03-04T20:32:49.250Z,3.80
2019-03-04T20:35:18.658Z,3.80
2019-03-04T20:38:08.596Z,3.70
2019-03-04T20:40:37.229Z,3.70
2019-03-04T20:43:05.954Z,3.70
2019-03-04T20:45:34.654Z,3.70
2019-03-04T20:48:03.318Z,3.70
2019-03-04T20:50:31.886Z,3.70
2019-03-04T20:53:00.546Z,3.70
2019-03-04T20:55:29.165Z,3.80
2019-03-04T20:57:57.874Z,3.80
2019-03-04T21:00:36.226Z,3.80
2019-03-04T21:03:06.408Z,3.70
2019-03-04T21:05:36.914Z,3.70
2019-03-04T21:08:06.715Z,3.70
2019-03-04T21:10:35.638Z,3.60
2019-03-04T21:13:08.922Z,3.60
2019-03-04T21:15:37.741Z,3.50
2019-03-04T21:18:06.447Z,3.50
2019-03-04T21:20:35.165Z,3.50
2019-03-04T21:23:03.898Z,3.50
2019-03-04T21:25:38.129Z,3.50
2019-03-04T21:28:12.758Z,3.50
2019-03-04T21:30:59.383Z,3.40
2019-03-04T21:33:33.833Z,3.40
2019-03-04T21:36:08.190Z,3.40
2019-03-04T21:38:36.754Z,3.30
2019-03-04T21:41:08.479Z,3.40
2019-03-04T21:43:40.114Z,3.30
2019-03-04T21:46:36.329Z,3.20
2019-03-04T21:49:07.324Z,3.20
2019-03-04T21:51:45.122Z,3.20
2019-03-04T21:54:14.640Z,3.20
2019-03-04T21:57:13.248Z,3.20
2019-03-04T21:59:41.802Z,3.20
2019-03-04T22:02:13.461Z,3.10
2019-03-04T22:04:42.194Z,3.10
2019-03-04T22:07:11.214Z,3.10
2019-03-04T22:09:40.017Z,3.00
2019-03-04T22:12:13.658Z,3.00
2019-03-04T22:14:42.573Z,3.00
2019-03-04T22:17:11.374Z,3.00
2019-03-04T22:19:40.026Z,2.90
2019-03-04T22:22:08.663Z,2.90
2019-03-04T22:24:37.218Z,2.90
2019-03-04T22:27:06.022Z,2.80
2019-03-04T22:29:34.673Z,2.60
2019-03-04T22:32:03.302Z,2.60
2019-03-04T22:34:31.934Z,2.50
2019-03-04T22:37:00.588Z,2.40
2019-03-04T22:39:29.210Z,2.30
2019-03-04T22:41:57.785Z,2.30
2019-03-04T22:44:26.442Z,2.20
2019-03-04T22:46:55.074Z,2.10
2019-03-04T22:49:23.655Z,2.10
2019-03-04T22:51:52.214Z,1.90
2019-03-04T22:54:20.793Z,1.90
2019-03-04T22:56:49.436Z,1.90
2019-03-04T22:59:18.025Z,1.80
2019-03-04T23:01:50.016Z,1.70
2019-03-04T23:04:19.691Z,1.60
2019-03-04T23:07:00.346Z,1.60
2019-03-04T23:09:32.006Z,1.50
2019-03-04T23:12:12.543Z,1.50
2019-03-04T23:14:41.157Z,1.50
2019-03-04T23:17:09.855Z,1.40
2019-03-04T23:19:38.419Z,1.40
2019-03-04T23:22:07.142Z,1.40
2019-03-04T23:24:35.705Z,1.30
2019-03-04T23:27:04.420Z,1.30
2019-03-04T23:29:32.991Z,1.30
2019-03-04T23:32:01.622Z,1.30
2019-03-04T23:34:30.199Z,1.30
2019-03-04T23:36:58.766Z,1.20
2019-03-04T23:39:27.341Z,1.30
2019-03-04T23:41:56.046Z,1.20
2019-03-04T23:44:24.683Z,1.20
2019-03-04T23:46:53.314Z,1.20
2019-03-04T23:49:21.955Z,1.10
2019-03-04T23:51:50.530Z,1.10
2019-03-04T23:54:19.162Z,1.20
2019-03-04T23:56:47.806Z,1.20
2019-03-04T23:59:16.378Z,1.20
